Time;durP1;ratioP1;P1;durP2;ratioP2;P2;SDS_P1;SDS_P2;PMS_P1;PMS_P2;Temp;Humidity;BMP_temperature;BMP_pressure;BME280_temperature;BME280_humidity;BME280_pressure;Samples;Min_cycle;Max_cycle;Signal;HPM_P1;HPM_P2
2023/03/24 00:02:07;;;;;;;;;0.67;0.67;;;;;22.82;43.19;99997.72;5057311;28;45385;-71
2023/03/24 00:04:33;;;;;;;;;0.33;0.33;;;;;22.82;43.16;99997.72;5058376;28;45377;-71
2023/03/24 00:07:03;;;;;;;;;0.00;0.00;;;;;22.77;42.97;99990.38;5058497;28;45589;-71
2023/03/24 00:09:29;;;;;;;;;1.00;0.67;;;;;22.79;42.51;99987.53;5057501;28;45384;-71
2023/03/24 00:11:56;;;;;;;;;1.00;1.00;;;;;22.78;42.74;99989.34;5058161;28;45413;-70
2023/03/24 00:14:22;;;;;;;;;2.00;1.00;;;;;22.77;42.66;100000.19;5058017;28;45324;-71
2023/03/24 00:16:48;;;;;;;;;2.67;1.00;;;;;22.77;42.92;99994.88;5039688;28;45369;-71
2023/03/24 00:19:14;;;;;;;;;0.67;0.67;;;;;22.74;42.70;99991.59;5056655;28;46308;-69
2023/03/24 00:21:40;;;;;;;;;1.00;1.00;;;;;22.76;42.90;100001.19;5057977;28;45381;-70
2023/03/24 00:24:07;;;;;;;;;1.00;1.00;;;;;22.74;42.95;100004.06;5058284;28;45487;-71
2023/03/24 00:26:36;;;;;;;;;0.00;0.00;;;;;22.73;42.69;100010.38;5057893;28;45401;-71
2023/03/24 00:29:03;;;;;;;;;1.00;1.00;;;;;22.68;43.16;100013.63;5057785;28;46349;-71
2023/03/24 00:31:29;;;;;;;;;1.00;1.00;;;;;22.72;43.09;100032.59;5057292;28;45303;-70
2023/03/24 00:33:55;;;;;;;;;1.00;1.00;;;;;22.72;43.02;100029.94;5057898;28;45309;-71
2023/03/24 00:36:23;;;;;;;;;0.00;0.00;;;;;22.71;43.17;100037.09;5057637;28;45360;-71
2023/03/24 00:38:48;;;;;;;;;0.00;0.00;;;;;22.69;42.94;100035.66;5057703;28;46996;-70
2023/03/24 00:41:18;;;;;;;;;1.67;1.00;;;;;22.69;43.22;100039.09;5057543;28;45428;-71
2023/03/24 00:43:44;;;;;;;;;0.33;0.33;;;;;22.69;43.19;100035.66;5057750;28;45277;-71
2023/03/24 00:46:12;;;;;;;;;1.00;0.67;;;;;22.62;42.67;100033.81;5057270;28;45373;-71
2023/03/24 00:48:40;;;;;;;;;0.67;0.67;;;;;22.68;42.86;100037.47;5057535;28;47273;-71
2023/03/24 00:51:06;;;;;;;;;0.33;0.33;;;;;22.68;42.75;100047.28;5057534;28;45455;-70
2023/03/24 00:53:33;;;;;;;;;0.00;0.00;;;;;22.69;42.50;100048.91;5057555;28;45410;-70
2023/03/24 00:56:00;;;;;;;;;0.33;0.33;;;;;22.68;42.73;100045.44;5057434;28;45446;-70
2023/03/24 00:58:28;;;;;;;;;0.00;0.00;;;;;22.70;42.86;100050.56;5057244;28;46219;-71
2023/03/24 01:00:56;;;;;;;;;1.00;1.00;;;;;22.68;42.43;100053.41;5056980;28;45500;-71
2023/03/24 01:03:26;;;;;;;;;1.00;0.00;;;;;22.69;42.11;100059.50;5057392;28;45263;-71
2023/03/24 01:06:00;;;;;;;;;1.67;1.67;;;;;22.68;42.17;100057.88;5057355;28;45290;-71
2023/03/24 01:08:27;;;;;;;;;0.00;0.00;;;;;22.66;42.34;100063.38;5056950;28;46918;-70
2023/03/24 01:10:53;;;;;;;;;0.33;0.33;;;;;22.68;42.40;100048.09;5057156;28;45375;-71
2023/03/24 01:13:21;;;;;;;;;0.00;0.00;;;;;22.68;42.22;100060.53;5057164;28;45396;-71
2023/03/24 01:15:47;;;;;;;;;1.00;1.00;;;;;22.68;42.59;100052.56;5056879;28;45540;-71
2023/03/24 01:18:13;;;;;;;;;0.50;0.50;;;;;22.68;42.24;100056.03;5057044;28;46819;-71
2023/03/24 01:20:39;;;;;;;;;1.00;1.00;;;;;22.69;42.15;100062.16;5057003;28;45400;-70
2023/03/24 01:23:06;;;;;;;;;1.00;0.00;;;;;22.68;42.09;100061.34;5057237;28;45285;-70
2023/03/24 01:25:34;;;;;;;;;1.00;1.00;;;;;22.68;42.15;100065.81;5056858;28;45403;-71
2023/03/24 01:28:00;;;;;;;;;2.00;2.00;;;;;22.63;42.09;100058.50;5056771;28;45515;-70
2023/03/24 01:30:27;;;;;;;;;0.00;0.00;;;;;22.66;42.12;100073.19;5055786;28;45451;-71
2023/03/24 01:32:53;;;;;;;;;0.00;0.00;;;;;22.65;42.06;100071.53;5056875;28;45372;-71
2023/03/24 01:35:20;;;;;;;;;0.67;0.67;;;;;22.66;42.24;100075.81;5056880;28;45706;-71
2023/03/24 01:37:46;;;;;;;;;0.00;0.00;;;;;22.63;42.24;100077.88;5056512;28;47144;-70
2023/03/24 01:40:20;;;;;;;;;1.33;0.00;;;;;22.61;42.53;100079.88;5056777;28;45417;-71
2023/03/24 01:42:46;;;;;;;;;2.00;1.00;;;;;22.62;42.18;100083.34;5057008;28;45222;-71
2023/03/24 01:45:52;;;;;;;;;0.00;0.00;;;;;22.63;42.63;100079.69;5056422;28;45606;-71
2023/03/24 01:48:32;;;;;;;;;0.00;0.00;;;;;22.62;42.31;100075.41;5056383;28;46146;-70
2023/03/24 01:51:08;;;;;;;;;1.67;1.00;;;;;22.61;42.34;100079.09;5056586;28;45329;-70
2023/03/24 01:53:37;;;;;;;;;0.00;0.00;;;;;22.60;42.29;100072.97;5056614;28;45364;-71
2023/03/24 01:56:06;;;;;;;;;1.00;1.00;;;;;22.60;41.97;100069.50;5055391;28;45445;-71
2023/03/24 01:58:34;;;;;;;;;0.00;0.00;;;;;22.59;42.50;100073.97;5055810;28;46340;-71
2023/03/24 02:01:02;;;;;;;;;1.00;1.00;;;;;22.55;42.06;100062.16;5055743;28;45434;-71
2023/03/24 02:03:32;;;;;;;;;0.00;0.00;;;;;22.46;42.05;100056.22;5055625;28;45703;-71
2023/03/24 02:06:01;;;;;;;;;0.67;0.67;;;;;22.55;42.13;100075.41;5056139;28;45443;-71
2023/03/24 02:08:55;;;;;;;;;0.00;0.00;;;;;22.55;42.60;100072.75;5056068;28;47149;-70
2023/03/24 02:11:23;;;;;;;;;0.00;0.00;;;;;22.56;42.05;100078.88;5056225;28;45238;-70
2023/03/24 02:13:48;;;;;;;;;1.00;1.00;;;;;22.56;42.38;100084.97;5056022;28;45333;-70
2023/03/24 02:16:22;;;;;;;;;1.00;1.00;;;;;22.56;42.11;100084.97;5056157;28;45388;-70
2023/03/24 02:18:53;;;;;;;;;0.00;0.00;;;;;22.57;42.43;100091.09;5056081;28;45400;-71
2023/03/24 02:21:31;;;;;;;;;1.00;1.00;;;;;22.57;42.02;100088.44;5056120;28;45298;-71
2023/03/24 02:24:23;;;;;;;;;1.00;1.00;;;;;22.57;42.02;100094.56;5056110;28;45372;-70
2023/03/24 02:27:05;;;;;;;;;0.33;0.33;;;;;22.59;42.31;100097.00;5055568;28;45504;-71
2023/03/24 02:29:57;;;;;;;;;0.00;0.00;;;;;22.59;42.23;100103.13;5055924;28;45458;-70
2023/03/24 02:32:34;;;;;;;;;0.00;0.00;;;;;22.59;42.08;100089.88;5055912;28;45553;-71
2023/03/24 02:35:54;;;;;;;;;2.00;1.00;;;;;22.60;42.03;100101.31;5055921;28;45317;-69
2023/03/24 02:38:25;;;;;;;;;0.00;0.00;;;;;22.59;41.85;100108.44;4974124;28;45363;-69
2023/03/24 02:41:23;;;;;;;;;2.00;0.00;;;;;22.59;41.71;100103.13;4974086;28;45505;-69
2023/03/24 02:43:57;;;;;;;;;0.00;0.00;;;;;22.59;42.05;100108.44;4973299;28;45374;-69
2023/03/24 02:46:26;;;;;;;;;1.33;0.33;;;;;22.59;41.54;100113.75;4957694;28;45375;-69
2023/03/24 02:49:20;;;;;;;;;0.00;0.00;;;;;22.60;41.42;100109.25;4974287;28;45275;-70
2023/03/24 02:51:57;;;;;;;;;0.67;0.00;;;;;22.59;41.43;100121.69;4967109;28;46236;-69
2023/03/24 02:54:34;;;;;;;;;0.00;0.00;;;;;22.59;41.87;100126.19;4973920;28;45555;-71
2023/03/24 02:57:14;;;;;;;;;1.00;1.00;;;;;22.58;41.78;100117.44;4973735;28;45475;-70
2023/03/24 02:59:45;;;;;;;;;2.33;1.00;;;;;22.55;41.82;100120.47;4973954;28;45398;-71
2023/03/24 03:02:25;;;;;;;;;0.33;0.33;;;;;22.58;41.64;100116.59;4973738;28;45440;-70
2023/03/24 03:04:56;;;;;;;;;0.00;0.00;;;;;22.59;41.59;100127.00;4973757;28;45324;-71
2023/03/24 03:07:28;;;;;;;;;0.00;0.00;;;;;22.58;41.36;100125.38;4973966;28;45320;-70
2023/03/24 03:10:09;;;;;;;;;2.00;0.33;;;;;22.57;41.71;100118.44;4973427;28;45431;-71
2023/03/24 03:12:37;;;;;;;;;0.00;0.00;;;;;22.59;41.40;100116.41;5033817;28;47041;-71
2023/03/24 03:15:11;;;;;;;;;1.00;1.00;;;;;22.57;41.26;100125.56;5037241;28;45411;-70
2023/03/24 03:17:41;;;;;;;;;1.33;0.00;;;;;22.59;41.20;100123.53;5055477;28;45416;-71
2023/03/24 03:20:12;;;;;;;;;0.00;0.00;;;;;22.57;41.21;100123.75;5055478;28;45598;-70
2023/03/24 03:22:48;;;;;;;;;1.00;1.00;;;;;22.51;41.64;100121.88;5055212;28;46701;-71
2023/03/24 03:25:17;;;;;;;;;0.00;0.00;;;;;22.58;41.83;100127.22;5054927;28;45368;-70
2023/03/24 03:27:45;;;;;;;;;0.00;0.00;;;;;22.57;41.45;100130.88;5055299;28;45335;-70
2023/03/24 03:30:22;;;;;;;;;0.00;0.00;;;;;22.59;41.22;100126.19;5055212;28;45276;-71
2023/03/24 03:32:59;;;;;;;;;0.00;0.00;;;;;22.56;41.20;100116.78;5055116;28;46274;-70
2023/03/24 03:36:15;;;;;;;;;0.00;0.00;;;;;22.57;41.43;100121.09;5054849;28;45426;-70
2023/03/24 03:38:53;;;;;;;;;0.00;0.00;;;;;22.57;41.83;100131.69;4973592;28;45402;-70
2023/03/24 03:41:19;;;;;;;;;0.00;0.00;;;;;22.56;41.90;100127.41;4973414;28;45608;-70
2023/03/24 03:43:47;;;;;;;;;0.00;0.00;;;;;22.56;41.22;100124.75;4957005;28;45592;-70
2023/03/24 03:46:13;;;;;;;;;0.00;0.00;;;;;22.56;41.42;100132.69;4973276;28;45587;-71
2023/03/24 03:48:39;;;;;;;;;0.00;0.00;;;;;22.54;41.34;100132.09;4973500;28;45399;-70
2023/03/24 03:51:05;;;;;;;;;0.00;0.00;;;;;22.51;41.32;100119.22;4973439;28;45476;-70
2023/03/24 03:53:40;;;;;;;;;1.00;1.00;;;;;22.48;41.72;100109.84;4973102;28;46153;-71
2023/03/24 03:56:06;;;;;;;;;3.00;0.00;;;;;22.55;41.88;100135.56;4976535;28;45388;-70
2023/03/24 03:58:31;;;;;;;;;0.00;0.00;;;;;22.55;41.28;100125.78;4976561;28;45420;-70
2023/03/24 04:00:57;;;;;;;;;0.33;0.33;;;;;22.54;41.78;100133.91;4960383;28;45366;-70
2023/03/24 04:03:32;;;;;;;;;1.00;0.00;;;;;22.53;41.33;100133.13;4976455;28;46076;-70
2023/03/24 04:06:12;;;;;;;;;0.00;0.00;;;;;22.43;41.72;100119.44;4976519;28;45401;-70
2023/03/24 04:08:50;;;;;;;;;0.00;0.00;;;;;22.51;41.87;100135.97;4976379;28;45412;-70
2023/03/24 04:11:31;;;;;;;;;0.00;0.00;;;;;22.51;41.74;100143.09;4978542;28;45404;-70
2023/03/24 04:14:14;;;;;;;;;0.00;0.00;;;;;22.50;41.23;100144.13;5057912;28;46313;-70
2023/03/24 04:16:52;;;;;;;;;0.00;0.00;;;;;22.50;41.32;100138.81;5058338;28;45231;-71
2023/03/24 04:19:29;;;;;;;;;2.33;0.00;;;;;22.51;41.14;100148.38;5058167;28;45485;-70
2023/03/24 04:22:42;;;;;;;;;1.00;0.00;;;;;22.51;41.31;100151.88;5058074;28;45362;-70
2023/03/24 04:25:36;;;;;;;;;0.00;0.00;;;;;22.52;41.72;100147.38;4956055;28;46472;-70
2023/03/24 04:28:13;;;;;;;;;0.00;0.00;;;;;22.51;41.70;100151.03;4956648;28;45502;-71
2023/03/24 04:30:49;;;;;;;;;0.00;0.00;;;;;22.50;41.11;100152.06;4956634;28;45446;-69
2023/03/24 04:33:50;;;;;;;;;0.00;0.00;;;;;22.49;41.35;100153.91;4956756;28;45530;-71
2023/03/24 04:37:02;;;;;;;;;0.00;0.00;;;;;22.51;41.08;100157.16;4955809;28;46016;-70
2023/03/24 04:39:33;;;;;;;;;0.00;0.00;;;;;22.52;41.34;100158.00;4936951;28;45402;-70
2023/03/24 04:42:03;;;;;;;;;0.00;0.00;;;;;22.44;41.29;100145.72;4937173;28;45486;-70
2023/03/24 04:44:31;;;;;;;;;0.00;0.00;;;;;22.50;41.04;100158.19;4937339;28;45485;-70
2023/03/24 04:47:01;;;;;;;;;0.00;0.00;;;;;22.52;41.09;100163.28;4937000;28;46911;-70
2023/03/24 04:49:26;;;;;;;;;0.00;0.00;;;;;22.49;41.21;100168.97;4936932;28;45482;-70
2023/03/24 04:51:52;;;;;;;;;0.00;0.00;;;;;22.51;41.46;100174.91;4936589;28;45331;-69
2023/03/24 04:54:20;;;;;;;;;0.00;0.00;;;;;22.51;41.56;100173.06;4937172;28;45465;-69
2023/03/24 04:56:49;;;;;;;;;0.00;0.00;;;;;22.51;41.51;100181.03;4969787;28;46367;-71
2023/03/24 04:59:15;;;;;;;;;1.00;0.00;;;;;22.49;41.39;100177.75;4975589;28;45393;-70
2023/03/24 05:01:48;;;;;;;;;1.00;0.00;;;;;22.49;41.23;100174.28;4975812;28;45501;-71
2023/03/24 05:04:22;;;;;;;;;0.00;0.00;;;;;22.51;41.38;100183.66;4975762;28;45440;-70
2023/03/24 05:06:48;;;;;;;;;0.00;0.00;;;;;22.49;41.69;100179.59;4974509;28;46196;-70
2023/03/24 05:09:16;;;;;;;;;1.00;1.00;;;;;22.47;41.41;100177.16;4980822;28;45403;-70
2023/03/24 05:11:42;;;;;;;;;0.00;0.00;;;;;22.50;41.42;100181.22;5036863;28;45297;-70
2023/03/24 05:14:08;;;;;;;;;0.00;0.00;;;;;22.48;41.68;100184.06;5048987;28;45438;-70
2023/03/24 05:16:33;;;;;;;;;0.00;0.00;;;;;22.49;41.40;100184.88;5056683;28;45328;-71
2023/03/24 05:18:58;;;;;;;;;0.00;0.00;;;;;22.47;40.88;100190.41;5057106;28;45298;-70
2023/03/24 05:21:25;;;;;;;;;1.33;0.00;;;;;22.47;41.05;100195.69;5056731;28;45338;-70
2023/03/24 05:23:50;;;;;;;;;0.00;0.00;;;;;22.45;41.49;100189.78;5057211;28;45396;-70
2023/03/24 05:26:15;;;;;;;;;0.00;0.00;;;;;22.47;41.39;100194.88;5056384;28;45380;-70
2023/03/24 05:28:41;;;;;;;;;0.00;0.00;;;;;22.46;41.55;100196.72;5056754;28;45443;-70
2023/03/24 05:31:06;;;;;;;;;0.00;0.00;;;;;22.47;40.98;100195.69;5057102;28;45274;-70
2023/03/24 05:33:31;;;;;;;;;0.00;0.00;;;;;22.39;41.02;100187.91;5057053;28;45567;-70
2023/03/24 05:35:56;;;;;;;;;0.00;0.00;;;;;22.46;40.82;100204.66;5056233;28;46113;-70
2023/03/24 05:38:22;;;;;;;;;0.00;0.00;;;;;22.46;40.98;100207.31;5056785;28;45385;-70
2023/03/24 05:40:47;;;;;;;;;0.67;0.00;;;;;22.46;41.33;100212.63;5057130;28;45499;-70
2023/03/24 05:43:13;;;;;;;;;0.00;0.00;;;;;22.46;40.90;100217.91;5057015;28;45309;-70
2023/03/24 05:45:38;;;;;;;;;0.00;0.00;;;;;22.47;41.36;100216.91;5056728;28;45395;-70
2023/03/24 05:48:04;;;;;;;;;0.00;0.00;;;;;22.46;41.06;100217.09;5038510;28;45545;-70
2023/03/24 05:50:31;;;;;;;;;0.00;0.00;;;;;22.45;40.88;100218.94;5056535;28;45388;-70
2023/03/24 05:52:56;;;;;;;;;0.33;0.00;;;;;22.43;41.28;100218.31;5056711;28;45454;-70
2023/03/24 05:55:22;;;;;;;;;0.00;0.00;;;;;22.36;41.20;100204.22;5056244;28;47055;-71
2023/03/24 05:57:47;;;;;;;;;0.00;0.00;;;;;22.47;41.31;100216.09;5056342;28;45453;-71
2023/03/24 06:00:16;;;;;;;;;0.33;0.33;;;;;22.47;40.94;100221.38;5056731;28;45373;-70
2023/03/24 06:02:43;;;;;;;;;0.00;0.00;;;;;22.46;40.80;100225.03;5056472;28;45352;-70
2023/03/24 06:05:09;;;;;;;;;0.00;0.00;;;;;22.48;40.95;100228.34;5055977;28;47211;-70
2023/03/24 06:07:37;;;;;;;;;0.67;0.67;;;;;22.47;41.26;100232.00;5056196;28;45317;-70
2023/03/24 06:10:03;;;;;;;;;0.00;0.00;;;;;22.47;40.94;100229.34;5056523;28;45234;-70
2023/03/24 06:12:29;;;;;;;;;0.00;0.00;;;;;22.47;40.78;100229.34;5056329;28;45281;-70
2023/03/24 06:14:56;;;;;;;;;0.00;0.00;;;;;22.48;40.62;100223.03;5056005;28;46168;-70
2023/03/24 06:17:23;;;;;;;;;2.33;0.00;;;;;22.48;41.01;100225.69;5054917;28;45289;-70
2023/03/24 06:19:49;;;;;;;;;0.00;0.00;;;;;22.48;40.93;100228.34;5055898;28;45400;-70
2023/03/24 06:22:18;;;;;;;;;0.00;0.00;;;;;22.49;41.09;100230.78;5056299;28;45406;-70
2023/03/24 06:24:45;;;;;;;;;0.00;0.00;;;;;22.48;41.28;100238.94;5055309;28;46174;-70
2023/03/24 06:27:12;;;;;;;;;1.00;0.00;;;;;22.47;41.25;100243.41;5055891;28;45384;-69
2023/03/24 06:29:41;;;;;;;;;0.00;0.00;;;;;22.47;41.19;100243.41;5056091;28;45543;-70
2023/03/24 06:32:07;;;;;;;;;0.00;0.00;;;;;22.48;40.72;100249.53;5055050;28;45337;-70
2023/03/24 06:34:33;;;;;;;;;0.00;0.00;;;;;22.54;40.35;100255.88;5055115;28;47067;-72
2023/03/24 06:36:58;;;;;;;;;0.00;0.00;;;;;22.56;40.39;100246.69;5055550;28;45242;-71
2023/03/24 06:39:25;;;;;;;;;0.67;0.00;;;;;22.60;40.22;100255.09;5055833;28;45280;-71
2023/03/24 06:41:50;;;;;;;;;1.00;0.00;;;;;22.68;40.61;100267.34;5055848;28;45435;-72
2023/03/24 06:44:16;;;;;;;;;0.00;0.00;;;;;22.73;40.56;100265.78;5055545;28;46264;-72
2023/03/24 06:46:41;;;;;;;;;0.00;0.00;;;;;22.79;40.54;100269.47;5054683;28;45348;-72
2023/03/24 06:49:07;;;;;;;;;1.00;1.00;;;;;22.84;40.37;100263.56;5055488;28;45411;-74
2023/03/24 06:51:32;;;;;;;;;0.00;0.00;;;;;22.91;40.55;100267.03;5054663;28;45389;-73
2023/03/24 06:53:58;;;;;;;;;2.67;0.00;;;;;22.98;40.30;100266.25;5054423;28;46246;-72
2023/03/24 06:56:23;;;;;;;;;0.00;0.00;;;;;23.02;40.43;100272.78;5054198;28;45443;-72
2023/03/24 06:58:48;;;;;;;;;0.00;0.00;;;;;23.07;40.77;100270.34;5054819;28;45348;-73
2023/03/24 07:01:14;;;;;;;;;0.00;0.00;;;;;23.06;40.35;100258.91;5055682;28;45373;-72
2023/03/24 07:03:41;;;;;;;;;1.00;1.00;;;;;23.16;40.69;100268.31;5054983;28;45693;-72
2023/03/24 07:06:08;;;;;;;;;0.00;0.00;;;;;23.20;40.64;100276.69;5055113;28;45469;-71
2023/03/24 07:08:34;;;;;;;;;0.67;0.67;;;;;23.23;40.00;100276.28;5055500;28;45463;-72
2023/03/24 07:10:59;;;;;;;;;1.00;0.00;;;;;23.25;39.97;100280.38;5055563;28;45507;-72
2023/03/24 07:13:25;;;;;;;;;0.00;0.00;;;;;23.28;40.25;100282.63;5055351;28;45911;-72
2023/03/24 07:15:50;;;;;;;;;0.00;0.00;;;;;23.29;39.91;100276.28;5055123;28;45431;-72
2023/03/24 07:18:18;;;;;;;;;1.33;1.00;;;;;23.35;39.91;100290.59;5055243;28;45408;-72
2023/03/24 07:20:43;;;;;;;;;1.00;1.00;;;;;23.38;39.88;100286.72;5055395;28;45373;-72
2023/03/24 07:23:08;;;;;;;;;0.00;0.00;;;;;23.42;40.13;100298.53;5055045;28;47062;-71
2023/03/24 07:25:34;;;;;;;;;1.67;0.33;;;;;23.44;40.25;100301.00;5055292;28;45281;-72
2023/03/24 07:28:00;;;;;;;;;1.00;1.00;;;;;23.40;40.01;100293.44;5055255;28;45372;-72
2023/03/24 07:30:26;;;;;;;;;0.00;0.00;;;;;23.50;40.06;100295.72;5040644;28;45311;-72
2023/03/24 07:32:53;;;;;;;;;1.00;0.00;;;;;23.52;39.88;100304.31;5058105;28;45959;-72
2023/03/24 07:35:18;;;;;;;;;0.33;0.00;;;;;23.56;39.76;100311.88;5058680;28;45284;-72
2023/03/24 07:37:44;;;;;;;;;1.00;0.00;;;;;23.54;39.89;100306.78;5058567;28;45324;-72
2023/03/24 07:40:11;;;;;;;;;2.00;0.00;;;;;23.58;39.64;100302.69;5058787;28;45344;-72
2023/03/24 07:42:38;;;;;;;;;1.00;0.00;;;;;23.60;39.90;100305.94;5058451;28;46937;-71
2023/03/24 07:45:05;;;;;;;;;0.00;0.00;;;;;23.60;39.44;100305.16;5058618;28;45332;-72
2023/03/24 07:47:30;;;;;;;;;0.33;0.00;;;;;23.60;39.85;100305.94;5058225;28;45528;-71
2023/03/24 07:49:56;;;;;;;;;0.00;0.00;;;;;23.65;39.51;100321.28;5058698;28;45391;-71
2023/03/24 07:52:21;;;;;;;;;1.00;1.00;;;;;23.66;39.33;100316.75;5058315;28;47059;-72
2023/03/24 07:54:47;;;;;;;;;0.00;0.00;;;;;23.67;39.56;100329.84;5058284;28;45296;-72
2023/03/24 07:57:12;;;;;;;;;0.00;0.00;;;;;23.68;39.51;100314.75;5058446;28;46006;-71
2023/03/24 07:59:37;;;;;;;;;0.00;0.00;;;;;23.69;39.49;100316.38;5040370;28;45388;-71
2023/03/24 08:02:03;;;;;;;;;0.33;0.00;;;;;23.69;40.02;100319.84;5058022;28;46297;-71
2023/03/24 08:04:28;;;;;;;;;0.67;0.67;;;;;23.73;39.65;100328.22;5054976;28;45416;-72
2023/03/24 08:06:54;;;;;;;;;0.00;0.00;;;;;23.74;39.76;100317.38;5056928;28;45512;-72
2023/03/24 08:09:22;;;;;;;;;1.00;1.00;;;;;23.77;39.31;100320.66;5053594;28;45580;-70
2023/03/24 08:11:48;;;;;;;;;0.00;0.00;;;;;23.78;39.65;100331.09;5056101;28;46214;-70
2023/03/24 08:14:14;;;;;;;;;0.00;0.00;;;;;23.80;39.50;100341.50;5057489;28;45356;-71
2023/03/24 08:16:39;;;;;;;;;0.00;0.00;;;;;23.73;39.73;100342.31;5057421;28;45333;-71
2023/03/24 08:19:05;;;;;;;;;1.00;1.00;;;;;23.73;39.37;100342.31;5057581;28;45289;-71
2023/03/24 08:21:30;;;;;;;;;0.00;0.00;;;;;23.70;39.39;100342.72;5055978;28;47049;-71
2023/03/24 08:23:55;;;;;;;;;0.00;0.00;;;;;23.63;39.81;100331.28;5056990;28;45433;-72
2023/03/24 08:26:21;;;;;;;;;0.00;0.00;;;;;23.65;39.87;100342.53;5057073;28;45384;-70
2023/03/24 08:28:48;;;;;;;;;0.33;0.00;;;;;23.61;39.58;100346.59;5056639;28;45634;-71
2023/03/24 08:31:13;;;;;;;;;0.00;0.00;;;;;23.60;39.74;100337.00;5056278;28;46353;-71
2023/03/24 08:33:39;;;;;;;;;2.00;0.00;;;;;23.58;39.31;100344.34;5057050;28;45480;-69
2023/03/24 08:36:05;;;;;;;;;0.00;0.00;;;;;23.59;40.00;100351.28;5056871;28;45377;-72
2023/03/24 08:38:30;;;;;;;;;0.67;0.33;;;;;23.59;39.71;100357.44;5054548;28;45285;-71
2023/03/24 08:41:00;;;;;;;;;1.00;1.00;;;;;23.50;39.91;100343.53;5055563;28;46458;-71
2023/03/24 08:43:27;;;;;;;;;0.33;0.00;;;;;23.58;39.36;100358.44;5056292;28;45720;-71
2023/03/24 08:45:54;;;;;;;;;0.67;0.00;;;;;23.48;39.46;100342.06;5057269;28;45388;-70
2023/03/24 08:48:20;;;;;;;;;0.00;0.00;;;;;23.59;39.67;100362.75;5057561;28;45269;-70
2023/03/24 08:50:45;;;;;;;;;0.67;0.00;;;;;23.59;39.61;100361.91;5056075;28;46366;-71
2023/03/24 08:53:11;;;;;;;;;1.00;1.00;;;;;23.59;39.66;100364.56;5056987;28;45552;-71
2023/03/24 08:55:40;;;;;;;;;0.00;0.00;;;;;23.56;40.00;100364.97;5055810;28;45312;-71
2023/03/24 08:58:06;;;;;;;;;1.00;0.00;;;;;23.53;39.84;100363.53;5056293;28;45342;-72
2023/03/24 09:00:31;;;;;;;;;0.00;0.00;;;;;23.51;39.35;100358.44;5056418;28;46138;-71
2023/03/24 09:02:57;;;;;;;;;2.00;1.00;;;;;23.50;39.72;100371.91;5056354;28;45444;-71
2023/03/24 09:05:24;;;;;;;;;2.00;0.33;;;;;23.48;39.43;100369.44;5056531;28;45549;-72
2023/03/24 09:07:51;;;;;;;;;1.00;1.00;;;;;23.42;39.51;100362.25;5056849;28;45238;-72
2023/03/24 09:10:16;;;;;;;;;1.00;1.00;;;;;23.45;39.55;100375.13;5056295;28;46310;-72
2023/03/24 09:12:43;;;;;;;;;0.00;0.00;;;;;23.45;39.66;100364.50;5056535;28;45348;-71
2023/03/24 09:15:10;;;;;;;;;0.00;0.00;;;;;23.45;39.97;100372.47;5057209;28;45393;-71
2023/03/24 09:17:37;;;;;;;;;0.67;0.33;;;;;23.46;39.43;100368.81;5056943;28;45456;-72
2023/03/24 09:20:10;;;;;;;;;0.00;0.00;;;;;23.46;40.00;100363.50;5056454;28;46306;-71
2023/03/24 09:22:41;;;;;;;;;1.00;0.00;;;;;23.45;39.90;100366.34;5056897;28;45446;-72
2023/03/24 09:25:07;;;;;;;;;1.00;1.00;;;;;23.39;39.95;100371.44;5055695;28;45460;-71
2023/03/24 09:27:32;;;;;;;;;0.00;0.00;;;;;23.33;39.88;100360.81;5055109;28;45439;-71
2023/03/24 09:29:58;;;;;;;;;2.33;0.67;;;;;23.39;39.84;100363.47;5056794;28;46300;-72
2023/03/24 09:32:23;;;;;;;;;1.00;1.00;;;;;23.43;40.00;100374.53;5056684;28;45412;-71
2023/03/24 09:34:48;;;;;;;;;0.00;0.00;;;;;23.42;40.16;100372.09;5056624;28;45317;-71
2023/03/24 09:37:14;;;;;;;;;0.00;0.00;;;;;23.40;39.76;100367.78;5056767;28;45498;-71
2023/03/24 09:39:39;;;;;;;;;3.00;0.00;;;;;23.42;39.55;100369.44;5056439;28;47119;-71
2023/03/24 09:42:07;;;;;;;;;2.00;0.00;;;;;23.42;39.94;100374.75;5056321;28;45467;-71
2023/03/24 09:44:39;;;;;;;;;1.00;1.00;;;;;23.42;39.58;100367.56;5056817;28;45357;-72
2023/03/24 09:47:12;;;;;;;;;0.00;0.00;;;;;23.40;39.70;100381.06;5056480;28;45424;-71
2023/03/24 09:49:41;;;;;;;;;1.00;0.00;;;;;23.42;39.64;100372.09;5055880;28;47478;-71
2023/03/24 09:52:11;;;;;;;;;1.33;1.00;;;;;23.42;39.61;100374.75;5056002;28;45381;-72
2023/03/24 09:54:55;;;;;;;;;0.00;0.00;;;;;23.40;39.85;100357.16;5056294;28;45389;-71
2023/03/24 09:57:44;;;;;;;;;1.00;1.00;;;;;23.39;39.52;100358.16;5055994;28;45354;-72
2023/03/24 10:00:28;;;;;;;;;1.00;1.00;;;;;23.39;39.44;100373.31;5055783;28;46213;-72
2023/03/24 10:02:58;;;;;;;;;1.00;0.00;;;;;23.28;39.73;100351.63;5054676;28;45447;-72
2023/03/24 10:05:36;;;;;;;;;0.67;0.67;;;;;23.37;39.90;100373.47;5055960;28;45334;-71
2023/03/24 10:08:01;;;;;;;;;1.00;1.00;;;;;23.38;40.04;100353.06;5056001;28;45498;-72
2023/03/24 10:10:58;;;;;;;;;0.00;0.00;;;;;23.38;39.75;100364.50;5055601;28;46228;-70
2023/03/24 10:13:30;;;;;;;;;2.00;0.00;;;;;23.38;39.60;100369.81;5055952;28;45376;-72
2023/03/24 10:16:14;;;;;;;;;2.00;1.00;;;;;23.38;39.55;100343.28;5056052;28;45458;-72
2023/03/24 10:18:50;;;;;;;;;1.00;0.00;;;;;23.39;39.59;100352.06;5055696;28;45359;-72
2023/03/24 10:21:24;;;;;;;;;0.67;0.67;;;;;23.38;39.70;100356.56;5055949;28;45290;-71
2023/03/24 10:23:49;;;;;;;;;0.00;0.00;;;;;23.38;39.79;100361.84;5056081;28;45367;-72
2023/03/24 10:26:27;;;;;;;;;0.67;0.67;;;;;23.38;39.27;100367.16;5055407;28;45379;-72
2023/03/24 10:29:20;;;;;;;;;0.67;0.67;;;;;23.36;39.72;100369.22;5055777;28;45490;-71
2023/03/24 10:31:53;;;;;;;;;0.00;0.00;;;;;23.37;39.83;100377.97;5055438;28;46273;-71
2023/03/24 10:34:21;;;;;;;;;1.00;0.00;;;;;23.33;39.79;100384.72;5056059;28;45269;-71
2023/03/24 10:36:46;;;;;;;;;0.00;0.00;;;;;23.34;39.43;100389.81;5055662;28;45312;-71
2023/03/24 10:39:15;;;;;;;;;0.00;0.00;;;;;23.34;39.68;100391.66;5055935;28;45349;-71
2023/03/24 10:41:42;;;;;;;;;1.00;1.00;;;;;23.32;39.99;100386.53;5055444;28;45440;-72
2023/03/24 10:44:08;;;;;;;;;1.00;1.00;;;;;23.33;39.96;100382.06;5055354;28;45317;-71
2023/03/24 10:46:39;;;;;;;;;2.00;1.00;;;;;23.31;39.24;100376.13;5055490;28;45383;-71
2023/03/24 10:49:14;;;;;;;;;2.67;0.33;;;;;23.29;39.76;100386.94;5055614;28;45389;-71
2023/03/24 10:51:45;;;;;;;;;1.67;1.00;;;;;23.29;39.78;100376.31;5055276;28;46314;-71
2023/03/24 10:54:14;;;;;;;;;0.67;0.00;;;;;23.27;39.87;100379.19;5055019;28;45292;-71
2023/03/24 10:56:49;;;;;;;;;0.00;0.00;;;;;23.25;39.33;100381.22;5055246;28;45333;-71
2023/03/24 10:59:54;;;;;;;;;0.67;0.00;;;;;23.25;39.49;100398.97;5055427;28;45437;-71
2023/03/24 11:02:28;;;;;;;;;0.67;0.33;;;;;23.21;39.40;100384.47;5054960;28;46039;-71
2023/03/24 11:04:57;;;;;;;;;0.00;0.00;;;;;23.17;39.78;100387.53;5054288;28;45525;-72
2023/03/24 11:07:43;;;;;;;;;0.00;0.00;;;;;23.25;39.67;100381.22;5055077;28;45373;-71
2023/03/24 11:10:09;;;;;;;;;2.00;1.00;;;;;23.25;39.42;100388.38;5055212;28;45260;-71
2023/03/24 11:12:40;;;;;;;;;1.00;1.00;;;;;23.25;39.53;100391.84;5055009;28;46100;-71
2023/03/24 11:15:20;;;;;;;;;1.00;1.00;;;;;23.26;39.56;100393.47;5055345;28;45398;-71
2023/03/24 11:17:58;;;;;;;;;0.33;0.33;;;;;23.26;39.70;100393.47;5055081;28;45158;-71
2023/03/24 11:21:05;;;;;;;;;2.67;1.67;;;;;23.27;39.41;100396.94;5055446;28;45412;-71
2023/03/24 11:23:44;;;;;;;;;1.00;1.00;;;;;23.25;39.41;100391.84;4972555;28;47033;-71
2023/03/24 11:26:12;;;;;;;;;0.33;0.33;;;;;23.26;39.83;100403.28;4973255;28;45494;-71
2023/03/24 11:28:42;;;;;;;;;1.00;0.00;;;;;23.26;39.85;100392.66;4973455;28;45394;-71
2023/03/24 11:31:10;;;;;;;;;1.33;1.00;;;;;23.26;39.51;100393.47;4968569;28;45438;-72
2023/03/24 11:33:48;;;;;;;;;3.00;1.00;;;;;23.26;39.35;100396.13;4952504;28;45459;-71
2023/03/24 11:36:29;;;;;;;;;2.00;1.00;;;;;23.27;39.84;100389.81;4953331;28;45347;-71
2023/03/24 11:39:09;;;;;;;;;1.00;1.00;;;;;23.25;39.20;100375.91;4952008;28;45384;-71
2023/03/24 11:41:37;;;;;;;;;2.00;0.67;;;;;23.21;39.38;100377.34;4953381;28;45438;-71